sensor_id;sensor_type;location;lat;lon;timestamp;P1;durP1;ratioP1;P2;durP2;ratioP2
10939;SDS011;5522;42.696;23.494;2023-08-07T00:00:36;0.30;;;0.30;;
10939;SDS011;5522;42.696;23.494;2023-08-07T00:03:03;0.22;;;0.20;;
10939;SDS011;5522;42.696;23.494;2023-08-07T00:05:31;0.43;;;0.20;;
10939;SDS011;5522;42.696;23.494;2023-08-07T00:07:58;0.20;;;0.20;;
10939;SDS011;5522;42.696;23.494;2023-08-07T00:10:25;0.30;;;0.30;;
10939;SDS011;5522;42.696;23.494;2023-08-07T00:12:52;1.05;;;0.30;;
10939;SDS011;5522;42.696;23.494;2023-08-07T00:15:19;1.70;;;0.30;;
10939;SDS011;5522;42.696;23.494;2023-08-07T00:17:46;0.30;;;0.30;;
10939;SDS011;5522;42.696;23.494;2023-08-07T00:22:49;0.50;;;0.30;;
10939;SDS011;5522;42.696;23.494;2023-08-07T00:25:16;0.47;;;0.30;;
10939;SDS011;5522;42.696;23.494;2023-08-07T00:27:43;0.80;;;0.30;;
10939;SDS011;5522;42.696;23.494;2023-08-07T00:30:10;0.30;;;0.30;;
10939;SDS011;5522;42.696;23.494;2023-08-07T00:32:38;1.25;;;0.30;;
10939;SDS011;5522;42.696;23.494;2023-08-07T00:35:05;0.40;;;0.40;;
10939;SDS011;5522;42.696;23.494;2023-08-07T00:37:33;3.45;;;0.45;;
10939;SDS011;5522;42.696;23.494;2023-08-07T00:40:01;0.80;;;0.43;;
10939;SDS011;5522;42.696;23.494;2023-08-07T00:42:29;0.32;;;0.32;;
10939;SDS011;5522;42.696;23.494;2023-08-07T00:44:56;0.30;;;0.30;;
10939;SDS011;5522;42.696;23.494;2023-08-07T00:47:22;0.40;;;0.40;;
10939;SDS011;5522;42.696;23.494;2023-08-07T00:49:49;3.50;;;0.40;;
10939;SDS011;5522;42.696;23.494;2023-08-07T00:52:16;0.30;;;0.30;;
10939;SDS011;5522;42.696;23.494;2023-08-07T00:54:44;0.73;;;0.73;;
10939;SDS011;5522;42.696;23.494;2023-08-07T00:57:13;1.17;;;0.40;;
10939;SDS011;5522;42.696;23.494;2023-08-07T00:59:40;1.13;;;0.40;;
10939;SDS011;5522;42.696;23.494;2023-08-07T01:07:18;0.40;;;0.40;;
10939;SDS011;5522;42.696;23.494;2023-08-07T01:09:45;0.40;;;0.40;;
10939;SDS011;5522;42.696;23.494;2023-08-07T01:12:15;0.40;;;0.40;;
10939;SDS011;5522;42.696;23.494;2023-08-07T01:14:49;0.43;;;0.40;;
10939;SDS011;5522;42.696;23.494;2023-08-07T01:17:20;0.40;;;0.40;;
10939;SDS011;5522;42.696;23.494;2023-08-07T01:19:49;0.40;;;0.40;;
10939;SDS011;5522;42.696;23.494;2023-08-07T01:22:19;1.85;;;0.50;;
10939;SDS011;5522;42.696;23.494;2023-08-07T01:24:47;0.40;;;0.40;;
10939;SDS011;5522;42.696;23.494;2023-08-07T01:27:19;0.43;;;0.43;;
10939;SDS011;5522;42.696;23.494;2023-08-07T01:29:57;0.40;;;0.40;;
10939;SDS011;5522;42.696;23.494;2023-08-07T01:32:31;0.63;;;0.50;;
10939;SDS011;5522;42.696;23.494;2023-08-07T01:35:05;0.40;;;0.40;;
10939;SDS011;5522;42.696;23.494;2023-08-07T01:37:35;0.63;;;0.40;;
10939;SDS011;5522;42.696;23.494;2023-08-07T01:40:05;0.80;;;0.43;;
10939;SDS011;5522;42.696;23.494;2023-08-07T01:42:34;0.40;;;0.40;;
10939;SDS011;5522;42.696;23.494;2023-08-07T01:45:01;1.10;;;0.40;;
10939;SDS011;5522;42.696;23.494;2023-08-07T01:47:29;0.50;;;0.50;;
10939;SDS011;5522;42.696;23.494;2023-08-07T01:49:56;0.70;;;0.50;;
10939;SDS011;5522;42.696;23.494;2023-08-07T01:52:23;0.50;;;0.50;;
10939;SDS011;5522;42.696;23.494;2023-08-07T01:54:51;1.85;;;0.50;;
10939;SDS011;5522;42.696;23.494;2023-08-07T01:57:18;0.52;;;0.50;;
10939;SDS011;5522;42.696;23.494;2023-08-07T01:59:45;0.82;;;0.60;;
10939;SDS011;5522;42.696;23.494;2023-08-07T02:02:12;1.48;;;0.50;;
10939;SDS011;5522;42.696;23.494;2023-08-07T02:04:39;0.50;;;0.50;;
10939;SDS011;5522;42.696;23.494;2023-08-07T02:07:05;0.50;;;0.50;;
10939;SDS011;5522;42.696;23.494;2023-08-07T02:09:32;0.40;;;0.40;;
10939;SDS011;5522;42.696;23.494;2023-08-07T02:12:00;0.63;;;0.60;;
10939;SDS011;5522;42.696;23.494;2023-08-07T02:14:28;0.50;;;0.50;;
10939;SDS011;5522;42.696;23.494;2023-08-07T02:16:55;0.50;;;0.50;;
10939;SDS011;5522;42.696;23.494;2023-08-07T02:19:22;0.77;;;0.50;;
10939;SDS011;5522;42.696;23.494;2023-08-07T02:21:48;1.00;;;0.50;;
10939;SDS011;5522;42.696;23.494;2023-08-07T02:24:15;0.85;;;0.50;;
10939;SDS011;5522;42.696;23.494;2023-08-07T02:26:43;0.55;;;0.55;;
10939;SDS011;5522;42.696;23.494;2023-08-07T02:29:11;0.40;;;0.40;;
10939;SDS011;5522;42.696;23.494;2023-08-07T02:31:38;0.47;;;0.47;;
10939;SDS011;5522;42.696;23.494;2023-08-07T02:34:05;0.82;;;0.40;;
10939;SDS011;5522;42.696;23.494;2023-08-07T02:36:32;0.50;;;0.50;;
10939;SDS011;5522;42.696;23.494;2023-08-07T02:38:58;0.50;;;0.50;;
10939;SDS011;5522;42.696;23.494;2023-08-07T02:41:25;0.50;;;0.50;;
10939;SDS011;5522;42.696;23.494;2023-08-07T02:43:52;4.18;;;0.60;;
10939;SDS011;5522;42.696;23.494;2023-08-07T02:46:20;1.40;;;0.40;;
10939;SDS011;5522;42.696;23.494;2023-08-07T02:48:47;1.23;;;0.50;;
10939;SDS011;5522;42.696;23.494;2023-08-07T02:51:14;0.47;;;0.47;;
10939;SDS011;5522;42.696;23.494;2023-08-07T02:53:41;0.90;;;0.70;;
10939;SDS011;5522;42.696;23.494;2023-08-07T02:56:08;0.45;;;0.45;;
10939;SDS011;5522;42.696;23.494;2023-08-07T02:58:35;0.50;;;0.50;;
10939;SDS011;5522;42.696;23.494;2023-08-07T03:01:03;0.57;;;0.57;;
10939;SDS011;5522;42.696;23.494;2023-08-07T03:03:32;1.38;;;0.40;;
10939;SDS011;5522;42.696;23.494;2023-08-07T03:05:59;0.70;;;0.50;;
10939;SDS011;5522;42.696;23.494;2023-08-07T03:08:26;0.82;;;0.50;;
10939;SDS011;5522;42.696;23.494;2023-08-07T03:10:53;4.95;;;0.60;;
10939;SDS011;5522;42.696;23.494;2023-08-07T03:13:21;0.57;;;0.50;;
10939;SDS011;5522;42.696;23.494;2023-08-07T03:15:48;2.28;;;0.60;;
10939;SDS011;5522;42.696;23.494;2023-08-07T03:18:15;2.67;;;0.60;;
10939;SDS011;5522;42.696;23.494;2023-08-07T03:20:43;0.70;;;0.70;;
10939;SDS011;5522;42.696;23.494;2023-08-07T03:23:10;1.23;;;0.63;;
10939;SDS011;5522;42.696;23.494;2023-08-07T03:25:37;1.10;;;1.10;;
10939;SDS011;5522;42.696;23.494;2023-08-07T03:28:04;0.80;;;0.80;;
10939;SDS011;5522;42.696;23.494;2023-08-07T03:30:31;0.80;;;0.80;;
10939;SDS011;5522;42.696;23.494;2023-08-07T03:32:58;3.47;;;1.30;;
10939;SDS011;5522;42.696;23.494;2023-08-07T03:35:24;2.97;;;1.50;;
10939;SDS011;5522;42.696;23.494;2023-08-07T03:37:53;1.65;;;1.45;;
10939;SDS011;5522;42.696;23.494;2023-08-07T03:40:20;3.30;;;1.63;;
10939;SDS011;5522;42.696;23.494;2023-08-07T03:42:46;1.50;;;1.38;;
10939;SDS011;5522;42.696;23.494;2023-08-07T03:45:13;2.65;;;1.55;;
10939;SDS011;5522;42.696;23.494;2023-08-07T03:47:41;1.27;;;1.13;;
10939;SDS011;5522;42.696;23.494;2023-08-07T03:50:07;3.33;;;1.40;;
10939;SDS011;5522;42.696;23.494;2023-08-07T03:52:34;1.90;;;1.20;;
10939;SDS011;5522;42.696;23.494;2023-08-07T03:55:03;1.40;;;1.40;;
10939;SDS011;5522;42.696;23.494;2023-08-07T03:57:30;1.77;;;1.20;;
10939;SDS011;5522;42.696;23.494;2023-08-07T03:59:57;1.13;;;0.90;;
10939;SDS011;5522;42.696;23.494;2023-08-07T04:02:24;1.00;;;1.00;;
10939;SDS011;5522;42.696;23.494;2023-08-07T04:04:52;3.85;;;1.00;;
10939;SDS011;5522;42.696;23.494;2023-08-07T04:07:20;1.13;;;1.13;;
10939;SDS011;5522;42.696;23.494;2023-08-07T04:09:47;0.90;;;0.90;;
10939;SDS011;5522;42.696;23.494;2023-08-07T04:12:16;2.05;;;1.27;;
10939;SDS011;5522;42.696;23.494;2023-08-07T04:14:42;1.38;;;0.98;;
10939;SDS011;5522;42.696;23.494;2023-08-07T04:17:09;3.40;;;0.88;;
10939;SDS011;5522;42.696;23.494;2023-08-07T04:19:36;1.05;;;0.80;;
10939;SDS011;5522;42.696;23.494;2023-08-07T04:22:03;0.90;;;0.80;;
10939;SDS011;5522;42.696;23.494;2023-08-07T04:24:30;0.98;;;0.98;;
10939;SDS011;5522;42.696;23.494;2023-08-07T04:26:57;0.63;;;0.50;;
10939;SDS011;5522;42.696;23.494;2023-08-07T04:29:25;0.50;;;0.40;;
10939;SDS011;5522;42.696;23.494;2023-08-07T04:31:52;1.85;;;0.40;;
10939;SDS011;5522;42.696;23.494;2023-08-07T04:34:19;0.40;;;0.40;;
10939;SDS011;5522;42.696;23.494;2023-08-07T04:36:46;0.40;;;0.40;;
10939;SDS011;5522;42.696;23.494;2023-08-07T04:39:13;1.65;;;0.35;;
10939;SDS011;5522;42.696;23.494;2023-08-07T04:41:39;0.40;;;0.40;;
10939;SDS011;5522;42.696;23.494;2023-08-07T04:44:06;1.65;;;0.30;;
10939;SDS011;5522;42.696;23.494;2023-08-07T04:46:35;0.45;;;0.30;;
10939;SDS011;5522;42.696;23.494;2023-08-07T04:49:01;0.30;;;0.30;;
10939;SDS011;5522;42.696;23.494;2023-08-07T04:51:28;0.30;;;0.30;;
10939;SDS011;5522;42.696;23.494;2023-08-07T04:53:56;2.28;;;0.30;;
10939;SDS011;5522;42.696;23.494;2023-08-07T04:56:23;0.40;;;0.20;;
10939;SDS011;5522;42.696;23.494;2023-08-07T04:58:50;0.35;;;0.20;;
10939;SDS011;5522;42.696;23.494;2023-08-07T05:01:16;0.30;;;0.20;;
10939;SDS011;5522;42.696;23.494;2023-08-07T05:03:45;1.10;;;0.20;;
10939;SDS011;5522;42.696;23.494;2023-08-07T05:23:37;0.50;;;0.20;;
10939;SDS011;5522;42.696;23.494;2023-08-07T05:26:04;0.13;;;0.13;;
10939;SDS011;5522;42.696;23.494;2023-08-07T05:28:31;0.50;;;0.15;;
10939;SDS011;5522;42.696;23.494;2023-08-07T05:30:58;0.30;;;0.20;;
10939;SDS011;5522;42.696;23.494;2023-08-07T05:33:25;2.30;;;0.20;;
10939;SDS011;5522;42.696;23.494;2023-08-07T05:35:51;0.10;;;0.10;;
10939;SDS011;5522;42.696;23.494;2023-08-07T05:38:20;0.85;;;0.10;;
10939;SDS011;5522;42.696;23.494;2023-08-07T05:40:48;2.00;;;0.20;;
10939;SDS011;5522;42.696;23.494;2023-08-07T05:43:16;0.10;;;0.10;;
10939;SDS011;5522;42.696;23.494;2023-08-07T05:45:43;0.20;;;0.10;;
10939;SDS011;5522;42.696;23.494;2023-08-07T05:48:11;0.10;;;0.10;;
10939;SDS011;5522;42.696;23.494;2023-08-07T05:50:38;0.20;;;0.10;;
10939;SDS011;5522;42.696;23.494;2023-08-07T05:53:05;1.50;;;1.45;;
10939;SDS011;5522;42.696;23.494;2023-08-07T05:55:32;0.20;;;0.20;;
10939;SDS011;5522;42.696;23.494;2023-08-07T05:58:00;0.52;;;0.10;;
10939;SDS011;5522;42.696;23.494;2023-08-07T06:00:27;0.10;;;0.10;;
10939;SDS011;5522;42.696;23.494;2023-08-07T06:02:54;0.10;;;0.10;;
10939;SDS011;5522;42.696;23.494;2023-08-07T06:05:20;1.75;;;0.10;;
10939;SDS011;5522;42.696;23.494;2023-08-07T06:07:47;0.10;;;0.10;;
10939;SDS011;5522;42.696;23.494;2023-08-07T06:10:14;0.75;;;0.10;;
10939;SDS011;5522;42.696;23.494;2023-08-07T06:12:41;0.10;;;0.10;;
10939;SDS011;5522;42.696;23.494;2023-08-07T06:15:09;0.20;;;0.10;;
10939;SDS011;5522;42.696;23.494;2023-08-07T06:17:36;0.10;;;0.10;;
10939;SDS011;5522;42.696;23.494;2023-08-07T06:20:05;0.30;;;0.10;;
10939;SDS011;5522;42.696;23.494;2023-08-07T06:22:34;0.10;;;0.10;;
10939;SDS011;5522;42.696;23.494;2023-08-07T06:25:01;4.03;;;0.10;;
10939;SDS011;5522;42.696;23.494;2023-08-07T06:27:28;3.30;;;0.10;;
10939;SDS011;5522;42.696;23.494;2023-08-07T06:29:55;0.70;;;0.10;;
10939;SDS011;5522;42.696;23.494;2023-08-07T06:32:24;0.20;;;0.10;;
10939;SDS011;5522;42.696;23.494;2023-08-07T06:34:51;0.10;;;0.10;;
10939;SDS011;5522;42.696;23.494;2023-08-07T06:37:18;0.10;;;0.10;;
10939;SDS011;5522;42.696;23.494;2023-08-07T06:39:45;0.00;;;0.00;;
10939;SDS011;5522;42.696;23.494;2023-08-07T06:42:12;0.88;;;0.10;;
10939;SDS011;5522;42.696;23.494;2023-08-07T06:44:39;3.20;;;0.10;;
10939;SDS011;5522;42.696;23.494;2023-08-07T06:47:06;0.00;;;0.00;;
10939;SDS011;5522;42.696;23.494;2023-08-07T06:49:35;2.53;;;0.10;;
10939;SDS011;5522;42.696;23.494;2023-08-07T06:52:02;0.08;;;0.03;;
10939;SDS011;5522;42.696;23.494;2023-08-07T06:54:29;0.57;;;0.20;;
10939;SDS011;5522;42.696;23.494;2023-08-07T06:56:56;2.40;;;0.10;;
10939;SDS011;5522;42.696;23.494;2023-08-07T06:59:23;0.47;;;0.10;;
10939;SDS011;5522;42.696;23.494;2023-08-07T07:01:50;0.55;;;0.10;;
10939;SDS011;5522;42.696;23.494;2023-08-07T07:04:17;0.05;;;0.05;;
10939;SDS011;5522;42.696;23.494;2023-08-07T07:06:45;0.38;;;0.10;;
10939;SDS011;5522;42.696;23.494;2023-08-07T07:09:12;0.00;;;0.00;;
10939;SDS011;5522;42.696;23.494;2023-08-07T07:11:41;0.00;;;0.00;;
10939;SDS011;5522;42.696;23.494;2023-08-07T07:14:09;0.05;;;0.00;;
10939;SDS011;5522;42.696;23.494;2023-08-07T07:16:39;0.00;;;0.00;;
10939;SDS011;5522;42.696;23.494;2023-08-07T07:19:07;0.10;;;0.10;;
10939;SDS011;5522;42.696;23.494;2023-08-07T07:21:34;0.30;;;0.10;;
10939;SDS011;5522;42.696;23.494;2023-08-07T07:24:04;0.00;;;0.00;;
10939;SDS011;5522;42.696;23.494;2023-08-07T07:26:31;1.35;;;0.00;;
10939;SDS011;5522;42.696;23.494;2023-08-07T07:28:58;1.08;;;0.00;;
10939;SDS011;5522;42.696;23.494;2023-08-07T07:31:25;0.00;;;0.00;;
10939;SDS011;5522;42.696;23.494;2023-08-07T07:33:52;0.00;;;0.00;;
10939;SDS011;5522;42.696;23.494;2023-08-07T07:36:19;0.00;;;0.00;;
10939;SDS011;5522;42.696;23.494;2023-08-07T07:38:46;0.20;;;0.10;;
10939;SDS011;5522;42.696;23.494;2023-08-07T07:41:14;0.57;;;0.10;;
10939;SDS011;5522;42.696;23.494;2023-08-07T07:43:42;0.15;;;0.00;;
10939;SDS011;5522;42.696;23.494;2023-08-07T07:46:09;1.48;;;0.00;;
10939;SDS011;5522;42.696;23.494;2023-08-07T07:48:36;0.30;;;0.00;;
10939;SDS011;5522;42.696;23.494;2023-08-07T07:51:03;3.92;;;0.10;;
10939;SDS011;5522;42.696;23.494;2023-08-07T07:53:30;1.13;;;0.10;;
10939;SDS011;5522;42.696;23.494;2023-08-07T07:55:57;1.38;;;0.00;;
10939;SDS011;5522;42.696;23.494;2023-08-07T07:58:25;0.08;;;0.00;;
10939;SDS011;5522;42.696;23.494;2023-08-07T08:00:52;0.90;;;0.10;;
10939;SDS011;5522;42.696;23.494;2023-08-07T08:03:20;1.55;;;0.10;;
10939;SDS011;5522;42.696;23.494;2023-08-07T08:05:49;1.25;;;0.10;;
10939;SDS011;5522;42.696;23.494;2023-08-07T08:08:16;1.20;;;0.10;;
10939;SDS011;5522;42.696;23.494;2023-08-07T08:10:43;0.17;;;0.00;;
10939;SDS011;5522;42.696;23.494;2023-08-07T08:13:12;0.10;;;0.10;;
10939;SDS011;5522;42.696;23.494;2023-08-07T08:15:40;2.03;;;0.00;;
10939;SDS011;5522;42.696;23.494;2023-08-07T08:18:07;2.72;;;0.00;;
10939;SDS011;5522;42.696;23.494;2023-08-07T08:20:34;1.00;;;0.00;;
10939;SDS011;5522;42.696;23.494;2023-08-07T08:23:01;1.10;;;0.00;;
10939;SDS011;5522;42.696;23.494;2023-08-07T08:25:28;1.75;;;0.10;;
10939;SDS011;5522;42.696;23.494;2023-08-07T08:27:55;0.10;;;0.10;;
10939;SDS011;5522;42.696;23.494;2023-08-07T08:30:21;0.40;;;0.00;;
10939;SDS011;5522;42.696;23.494;2023-08-07T08:32:50;0.00;;;0.00;;
10939;SDS011;5522;42.696;23.494;2023-08-07T08:35:17;0.40;;;0.05;;
10939;SDS011;5522;42.696;23.494;2023-08-07T08:37:45;0.30;;;0.00;;
10939;SDS011;5522;42.696;23.494;2023-08-07T08:40:13;0.38;;;0.00;;
10939;SDS011;5522;42.696;23.494;2023-08-07T08:42:43;0.30;;;0.00;;
10939;SDS011;5522;42.696;23.494;2023-08-07T08:45:12;0.60;;;0.08;;
10939;SDS011;5522;42.696;23.494;2023-08-07T08:47:40;0.10;;;0.10;;
10939;SDS011;5522;42.696;23.494;2023-08-07T08:50:10;1.27;;;0.00;;
10939;SDS011;5522;42.696;23.494;2023-08-07T08:52:40;0.00;;;0.00;;
10939;SDS011;5522;42.696;23.494;2023-08-07T08:55:12;0.00;;;0.00;;
10939;SDS011;5522;42.696;23.494;2023-08-07T08:57:40;0.05;;;0.00;;
10939;SDS011;5522;42.696;23.494;2023-08-07T09:00:08;0.10;;;0.00;;
10939;SDS011;5522;42.696;23.494;2023-08-07T09:02:43;0.25;;;0.00;;
10939;SDS011;5522;42.696;23.494;2023-08-07T09:05:11;0.10;;;0.10;;
10939;SDS011;5522;42.696;23.494;2023-08-07T09:07:38;0.00;;;0.00;;
10939;SDS011;5522;42.696;23.494;2023-08-07T09:10:06;0.22;;;0.00;;
10939;SDS011;5522;42.696;23.494;2023-08-07T09:12:34;0.00;;;0.00;;
10939;SDS011;5522;42.696;23.494;2023-08-07T09:15:06;0.10;;;0.10;;
10939;SDS011;5522;42.696;23.494;2023-08-07T09:17:38;0.25;;;0.05;;
10939;SDS011;5522;42.696;23.494;2023-08-07T09:20:10;0.00;;;0.00;;
10939;SDS011;5522;42.696;23.494;2023-08-07T09:22:43;0.75;;;0.08;;
10939;SDS011;5522;42.696;23.494;2023-08-07T09:25:10;0.00;;;0.00;;
10939;SDS011;5522;42.696;23.494;2023-08-07T09:27:37;0.00;;;0.00;;
10939;SDS011;5522;42.696;23.494;2023-08-07T09:30:05;1.88;;;0.05;;
10939;SDS011;5522;42.696;23.494;2023-08-07T09:32:34;2.78;;;0.40;;
10939;SDS011;5522;42.696;23.494;2023-08-07T09:35:02;0.20;;;0.00;;
10939;SDS011;5522;42.696;23.494;2023-08-07T09:37:34;2.97;;;0.10;;
10939;SDS011;5522;42.696;23.494;2023-08-07T09:40:04;3.95;;;0.00;;
10939;SDS011;5522;42.696;23.494;2023-08-07T09:42:35;0.70;;;0.10;;
10939;SDS011;5522;42.696;23.494;2023-08-07T09:45:03;1.02;;;0.00;;
10939;SDS011;5522;42.696;23.494;2023-08-07T09:47:45;0.00;;;0.00;;
10939;SDS011;5522;42.696;23.494;2023-08-07T09:50:15;0.28;;;0.00;;
10939;SDS011;5522;42.696;23.494;2023-08-07T09:52:47;0.05;;;0.00;;
10939;SDS011;5522;42.696;23.494;2023-08-07T09:55:15;0.00;;;0.00;;
10939;SDS011;5522;42.696;23.494;2023-08-07T09:57:43;1.38;;;0.00;;
10939;SDS011;5522;42.696;23.494;2023-08-07T10:00:12;0.80;;;0.00;;
10939;SDS011;5522;42.696;23.494;2023-08-07T10:02:40;0.45;;;0.00;;
10939;SDS011;5522;42.696;23.494;2023-08-07T10:05:07;0.00;;;0.00;;
10939;SDS011;5522;42.696;23.494;2023-08-07T10:07:36;0.43;;;0.00;;
10939;SDS011;5522;42.696;23.494;2023-08-07T10:10:06;0.00;;;0.00;;
10939;SDS011;5522;42.696;23.494;2023-08-07T10:12:34;0.38;;;0.00;;
10939;SDS011;5522;42.696;23.494;2023-08-07T10:15:00;0.00;;;0.00;;
10939;SDS011;5522;42.696;23.494;2023-08-07T10:17:28;0.00;;;0.00;;
10939;SDS011;5522;42.696;23.494;2023-08-07T10:19:56;0.10;;;0.10;;
10939;SDS011;5522;42.696;23.494;2023-08-07T10:22:23;0.10;;;0.10;;
10939;SDS011;5522;42.696;23.494;2023-08-07T10:24:52;0.10;;;0.10;;
10939;SDS011;5522;42.696;23.494;2023-08-07T10:27:21;0.10;;;0.00;;
10939;SDS011;5522;42.696;23.494;2023-08-07T10:29:50;0.10;;;0.10;;
10939;SDS011;5522;42.696;23.494;2023-08-07T10:32:20;3.47;;;0.10;;
10939;SDS011;5522;42.696;23.494;2023-08-07T10:34:50;0.20;;;0.10;;
10939;SDS011;5522;42.696;23.494;2023-08-07T10:37:31;0.95;;;0.10;;
10939;SDS011;5522;42.696;23.494;2023-08-07T10:40:00;0.10;;;0.10;;
10939;SDS011;5522;42.696;23.494;2023-08-07T10:42:30;1.52;;;0.30;;
10939;SDS011;5522;42.696;23.494;2023-08-07T10:45:16;1.95;;;0.10;;
10939;SDS011;5522;42.696;23.494;2023-08-07T10:47:49;1.35;;;0.10;;
10939;SDS011;5522;42.696;23.494;2023-08-07T10:50:27;0.10;;;0.10;;
10939;SDS011;5522;42.696;23.494;2023-08-07T10:52:54;0.20;;;0.10;;
10939;SDS011;5522;42.696;23.494;2023-08-07T10:55:21;0.10;;;0.10;;
10939;SDS011;5522;42.696;23.494;2023-08-07T10:57:50;0.25;;;0.10;;
10939;SDS011;5522;42.696;23.494;2023-08-07T11:00:17;0.20;;;0.10;;
10939;SDS011;5522;42.696;23.494;2023-08-07T11:02:51;0.82;;;0.03;;
10939;SDS011;5522;42.696;23.494;2023-08-07T11:05:18;0.10;;;0.10;;
10939;SDS011;5522;42.696;23.494;2023-08-07T11:07:45;0.20;;;0.10;;
10939;SDS011;5522;42.696;23.494;2023-08-07T11:10:13;0.10;;;0.10;;
10939;SDS011;5522;42.696;23.494;2023-08-07T11:12:41;0.10;;;0.10;;
10939;SDS011;5522;42.696;23.494;2023-08-07T11:15:12;1.70;;;0.10;;
10939;SDS011;5522;42.696;23.494;2023-08-07T11:17:40;0.10;;;0.10;;
10939;SDS011;5522;42.696;23.494;2023-08-07T11:20:08;0.00;;;0.00;;
10939;SDS011;5522;42.696;23.494;2023-08-07T11:22:37;1.70;;;0.10;;
10939;SDS011;5522;42.696;23.494;2023-08-07T11:25:06;1.38;;;0.10;;
10939;SDS011;5522;42.696;23.494;2023-08-07T11:27:38;0.28;;;0.10;;
10939;SDS011;5522;42.696;23.494;2023-08-07T11:30:10;0.10;;;0.10;;
10939;SDS011;5522;42.696;23.494;2023-08-07T11:32:39;0.20;;;0.10;;
10939;SDS011;5522;42.696;23.494;2023-08-07T11:35:06;0.20;;;0.10;;
10939;SDS011;5522;42.696;23.494;2023-08-07T11:37:35;0.10;;;0.10;;
10939;SDS011;5522;42.696;23.494;2023-08-07T11:40:02;0.10;;;0.10;;
10939;SDS011;5522;42.696;23.494;2023-08-07T11:42:29;0.10;;;0.10;;
10939;SDS011;5522;42.696;23.494;2023-08-07T11:44:56;0.05;;;0.05;;
10939;SDS011;5522;42.696;23.494;2023-08-07T11:47:24;0.10;;;0.10;;
10939;SDS011;5522;42.696;23.494;2023-08-07T11:49:51;0.10;;;0.10;;
10939;SDS011;5522;42.696;23.494;2023-08-07T11:52:18;0.85;;;0.43;;
10939;SDS011;5522;42.696;23.494;2023-08-07T11:54:47;0.08;;;0.08;;
10939;SDS011;5522;42.696;23.494;2023-08-07T11:57:15;0.10;;;0.10;;
10939;SDS011;5522;42.696;23.494;2023-08-07T11:59:45;0.63;;;0.10;;
10939;SDS011;5522;42.696;23.494;2023-08-07T12:02:14;0.10;;;0.10;;
10939;SDS011;5522;42.696;23.494;2023-08-07T12:04:42;0.10;;;0.10;;
10939;SDS011;5522;42.696;23.494;2023-08-07T12:07:09;0.10;;;0.10;;
10939;SDS011;5522;42.696;23.494;2023-08-07T12:09:38;0.80;;;0.10;;
10939;SDS011;5522;42.696;23.494;2023-08-07T12:12:06;1.38;;;0.10;;
10939;SDS011;5522;42.696;23.494;2023-08-07T12:14:33;0.80;;;0.08;;
10939;SDS011;5522;42.696;23.494;2023-08-07T12:17:01;1.00;;;0.10;;
10939;SDS011;5522;42.696;23.494;2023-08-07T12:19:35;0.10;;;0.10;;
10939;SDS011;5522;42.696;23.494;2023-08-07T12:22:06;0.10;;;0.10;;
10939;SDS011;5522;42.696;23.494;2023-08-07T12:24:35;0.10;;;0.10;;
10939;SDS011;5522;42.696;23.494;2023-08-07T12:27:02;0.10;;;0.10;;
10939;SDS011;5522;42.696;23.494;2023-08-07T12:29:29;0.10;;;0.10;;
10939;SDS011;5522;42.696;23.494;2023-08-07T12:31:56;0.10;;;0.10;;
10939;SDS011;5522;42.696;23.494;2023-08-07T12:34:24;0.32;;;0.10;;
10939;SDS011;5522;42.696;23.494;2023-08-07T12:36:51;1.08;;;0.10;;
10939;SDS011;5522;42.696;23.494;2023-08-07T12:39:19;1.13;;;0.10;;
10939;SDS011;5522;42.696;23.494;2023-08-07T12:41:46;0.75;;;0.10;;
10939;SDS011;5522;42.696;23.494;2023-08-07T12:44:14;0.10;;;0.10;;
10939;SDS011;5522;42.696;23.494;2023-08-07T12:46:41;1.58;;;0.10;;
10939;SDS011;5522;42.696;23.494;2023-08-07T12:49:08;0.17;;;0.17;;
10939;SDS011;5522;42.696;23.494;2023-08-07T12:51:35;0.75;;;0.10;;
10939;SDS011;5522;42.696;23.494;2023-08-07T12:54:02;1.17;;;0.10;;
10939;SDS011;5522;42.696;23.494;2023-08-07T12:56:30;1.45;;;0.10;;
10939;SDS011;5522;42.696;23.494;2023-08-07T12:58:57;0.10;;;0.10;;
10939;SDS011;5522;42.696;23.494;2023-08-07T13:01:24;0.10;;;0.10;;
10939;SDS011;5522;42.696;23.494;2023-08-07T13:03:51;0.20;;;0.10;;
10939;SDS011;5522;42.696;23.494;2023-08-07T13:06:18;0.17;;;0.17;;
10939;SDS011;5522;42.696;23.494;2023-08-07T13:08:45;0.22;;;0.10;;
10939;SDS011;5522;42.696;23.494;2023-08-07T13:11:12;0.10;;;0.10;;
10939;SDS011;5522;42.696;23.494;2023-08-07T13:13:40;0.10;;;0.10;;
10939;SDS011;5522;42.696;23.494;2023-08-07T13:16:07;0.20;;;0.10;;
10939;SDS011;5522;42.696;23.494;2023-08-07T13:18:34;0.10;;;0.10;;
10939;SDS011;5522;42.696;23.494;2023-08-07T13:21:01;0.20;;;0.10;;
10939;SDS011;5522;42.696;23.494;2023-08-07T13:23:28;1.08;;;0.10;;
10939;SDS011;5522;42.696;23.494;2023-08-07T13:25:54;1.90;;;0.10;;
10939;SDS011;5522;42.696;23.494;2023-08-07T13:28:21;0.10;;;0.10;;
10939;SDS011;5522;42.696;23.494;2023-08-07T13:30:49;0.10;;;0.10;;
10939;SDS011;5522;42.696;23.494;2023-08-07T13:33:19;0.57;;;0.10;;
10939;SDS011;5522;42.696;23.494;2023-08-07T13:35:46;0.20;;;0.10;;
10939;SDS011;5522;42.696;23.494;2023-08-07T13:38:13;0.63;;;0.10;;
10939;SDS011;5522;42.696;23.494;2023-08-07T13:40:40;0.55;;;0.10;;
10939;SDS011;5522;42.696;23.494;2023-08-07T13:43:09;0.75;;;0.10;;
10939;SDS011;5522;42.696;23.494;2023-08-07T13:45:36;0.10;;;0.10;;
10939;SDS011;5522;42.696;23.494;2023-08-07T13:48:04;0.10;;;0.10;;
10939;SDS011;5522;42.696;23.494;2023-08-07T13:50:34;0.10;;;0.10;;
10939;SDS011;5522;42.696;23.494;2023-08-07T13:53:02;3.75;;;0.10;;
10939;SDS011;5522;42.696;23.494;2023-08-07T13:55:29;1.10;;;0.10;;
10939;SDS011;5522;42.696;23.494;2023-08-07T13:57:56;0.10;;;0.10;;
10939;SDS011;5522;42.696;23.494;2023-08-07T14:00:23;0.10;;;0.10;;
10939;SDS011;5522;42.696;23.494;2023-08-07T14:02:50;0.15;;;0.10;;
10939;SDS011;5522;42.696;23.494;2023-08-07T14:05:18;0.10;;;0.10;;
10939;SDS011;5522;42.696;23.494;2023-08-07T14:07:45;0.38;;;0.13;;
10939;SDS011;5522;42.696;23.494;2023-08-07T14:10:12;0.15;;;0.10;;
10939;SDS011;5522;42.696;23.494;2023-08-07T14:12:39;0.10;;;0.10;;
10939;SDS011;5522;42.696;23.494;2023-08-07T14:15:06;0.98;;;0.10;;
10939;SDS011;5522;42.696;23.494;2023-08-07T14:17:33;1.25;;;0.20;;
10939;SDS011;5522;42.696;23.494;2023-08-07T14:20:00;0.75;;;0.20;;
10939;SDS011;5522;42.696;23.494;2023-08-07T14:22:28;0.10;;;0.10;;
10939;SDS011;5522;42.696;23.494;2023-08-07T14:24:55;0.10;;;0.10;;
10939;SDS011;5522;42.696;23.494;2023-08-07T14:27:22;1.23;;;0.10;;
10939;SDS011;5522;42.696;23.494;2023-08-07T14:29:49;0.25;;;0.20;;
10939;SDS011;5522;42.696;23.494;2023-08-07T14:32:16;0.85;;;0.20;;
10939;SDS011;5522;42.696;23.494;2023-08-07T14:34:43;0.13;;;0.13;;
10939;SDS011;5522;42.696;23.494;2023-08-07T14:37:11;0.10;;;0.10;;
10939;SDS011;5522;42.696;23.494;2023-08-07T14:39:40;0.80;;;0.20;;
10939;SDS011;5522;42.696;23.494;2023-08-07T14:42:07;0.98;;;0.20;;
10939;SDS011;5522;42.696;23.494;2023-08-07T14:44:34;0.20;;;0.20;;
10939;SDS011;5522;42.696;23.494;2023-08-07T14:47:01;0.30;;;0.20;;
10939;SDS011;5522;42.696;23.494;2023-08-07T14:49:28;0.20;;;0.20;;
10939;SDS011;5522;42.696;23.494;2023-08-07T14:51:55;0.95;;;0.22;;
10939;SDS011;5522;42.696;23.494;2023-08-07T14:54:22;0.47;;;0.20;;
10939;SDS011;5522;42.696;23.494;2023-08-07T14:56:50;0.20;;;0.20;;
10939;SDS011;5522;42.696;23.494;2023-08-07T14:59:18;3.20;;;0.20;;
10939;SDS011;5522;42.696;23.494;2023-08-07T15:01:46;0.10;;;0.10;;
10939;SDS011;5522;42.696;23.494;2023-08-07T15:04:12;0.20;;;0.20;;
10939;SDS011;5522;42.696;23.494;2023-08-07T15:06:39;0.10;;;0.10;;
10939;SDS011;5522;42.696;23.494;2023-08-07T15:09:07;2.50;;;0.10;;
10939;SDS011;5522;42.696;23.494;2023-08-07T15:11:34;0.98;;;0.20;;
10939;SDS011;5522;42.696;23.494;2023-08-07T15:14:03;1.17;;;0.20;;
10939;SDS011;5522;42.696;23.494;2023-08-07T15:16:30;0.85;;;0.20;;